CheckWX is a tool to help pilots better visualize weather data.  It is not intended as a substitute for an official pre-flight weather briefing.

18:34:26 UTC

KMCO METAR
Orlando International Airport
Orlando, Florida, USA
Current

41 mins ago

KMCO 221753Z 13006KT 10SM SCT041 29/18 A3016 RMK AO2 SLP212 T02890183 10289 20194 58014
Observed
Feb-22 @ 17:53 UTC
Wind
  • 130° at 6 KTS
Visibility
10 SM
Flight Rules
VFR
Cloud Levels
  • Scattered at 4,100' AGL
Temperature
29°C / 84°F
Dewpoint
18°C / 64°F
Humidity
51%
Altimeter
30.16" Hg
Pressure
1021.2 hPa
Previous

2 hours ago

KMCO 221653Z 18007KT 10SM SCT033 28/18 A3019 RMK AO2 SLP221 T02780183
Observed
Feb-22 @ 16:53 UTC
Wind
  • 180° at 7 KTS
Visibility
10 SM
Flight Rules
VFR
Cloud Levels
  • Scattered at 3,300' AGL
Temperature
28°C / 82°F
Dewpoint
18°C / 64°F
Humidity
55%
Altimeter
30.19" Hg
Pressure
1022.1 hPa
Previous

3 hours ago

KMCO 221553Z 15008KT 10SM SCT028 27/18 A3020 RMK AO2 SLP225 T02720183
Observed
Feb-22 @ 15:53 UTC
Wind
  • 150° at 8 KTS
Visibility
10 SM
Flight Rules
VFR
Cloud Levels
  • Scattered at 2,800' AGL
Temperature
27°C / 81°F
Dewpoint
18°C / 64°F
Humidity
58%
Altimeter
30.2" Hg
Pressure
1022.5 hPa